createdAt,value
2018-12-03T00:01:49.974Z,31.57
2018-12-03T00:04:19.603Z,28.93
2018-12-03T00:06:47.865Z,28.97
2018-12-03T00:09:16.028Z,34.63
2018-12-03T00:11:44.189Z,27.90
2018-12-03T00:14:12.398Z,27.35
2018-12-03T00:16:40.564Z,28.12
2018-12-03T00:19:08.951Z,25.73
2018-12-03T00:21:37.107Z,31.00
2018-12-03T00:24:05.739Z,24.20
2018-12-03T00:26:33.854Z,19.80
2018-12-03T00:29:01.979Z,19.77
2018-12-03T00:31:30.128Z,19.13
2018-12-03T00:33:58.294Z,20.12
2018-12-03T00:36:26.452Z,20.27
2018-12-03T00:38:54.596Z,18.23
2018-12-03T00:41:22.764Z,19.82
2018-12-03T00:43:50.959Z,15.95
2018-12-03T00:46:19.107Z,18.65
2018-12-03T00:48:47.275Z,19.90
2018-12-03T00:51:15.455Z,18.23
2018-12-03T00:53:43.725Z,18.87
2018-12-03T00:56:11.879Z,15.93
2018-12-03T00:58:40.006Z,17.83
2018-12-03T01:01:08.196Z,16.80
2018-12-03T01:03:36.363Z,20.37
2018-12-03T01:06:04.897Z,18.97
2018-12-03T01:08:33.047Z,18.45
2018-12-03T01:11:01.267Z,19.50
2018-12-03T01:13:29.415Z,25.70
2018-12-03T01:15:57.535Z,24.93
2018-12-03T01:18:25.690Z,27.27
2018-12-03T01:20:54.548Z,27.90
2018-12-03T01:23:22.703Z,28.98
2018-12-03T01:25:50.858Z,34.83
2018-12-03T01:28:19.064Z,36.38
2018-12-03T01:30:47.169Z,29.90
2018-12-03T01:33:15.303Z,35.65
2018-12-03T01:35:43.479Z,40.10
2018-12-03T01:38:11.616Z,41.60
2018-12-03T01:40:39.771Z,38.80
2018-12-03T01:43:07.922Z,38.23
2018-12-03T01:45:36.110Z,34.53
2018-12-03T01:48:04.263Z,43.40
2018-12-03T01:50:32.488Z,39.03
2018-12-03T01:53:00.664Z,35.63
2018-12-03T01:55:28.833Z,37.77
2018-12-03T01:57:56.960Z,41.53
2018-12-03T02:00:25.219Z,39.90
2018-12-03T02:02:53.422Z,34.77
2018-12-03T02:05:21.554Z,43.10
2018-12-03T02:07:49.711Z,36.97
2018-12-03T02:10:17.908Z,39.77
2018-12-03T02:12:46.067Z,46.60
2018-12-03T02:15:15.443Z,36.10
2018-12-03T02:17:43.847Z,39.33
2018-12-03T02:20:13.227Z,38.47
2018-12-03T02:22:41.396Z,38.37
2018-12-03T02:25:10.316Z,35.33
2018-12-03T02:27:38.474Z,38.70
2018-12-03T02:30:12.912Z,39.27
2018-12-03T02:32:41.500Z,39.13
2018-12-03T02:35:10.928Z,36.80
2018-12-03T02:37:39.296Z,33.40
2018-12-03T02:40:10.147Z,42.03
2018-12-03T02:42:38.320Z,39.20
2018-12-03T02:45:09.122Z,34.08
2018-12-03T02:47:37.258Z,35.58
2018-12-03T02:50:07.077Z,35.20
2018-12-03T02:52:35.863Z,37.27
2018-12-03T02:55:04.599Z,32.13
2018-12-03T02:57:32.711Z,31.23
2018-12-03T03:00:00.853Z,33.13
2018-12-03T03:02:29.731Z,34.03
2018-12-03T03:04:57.948Z,32.33
2018-12-03T03:07:26.120Z,35.63
2018-12-03T03:09:54.318Z,30.90
2018-12-03T03:12:22.495Z,30.37
2018-12-03T03:14:50.661Z,32.60
2018-12-03T03:17:18.874Z,29.18
2018-12-03T03:19:47.027Z,32.23
2018-12-03T03:22:15.120Z,35.80
2018-12-03T03:24:43.279Z,31.70
2018-12-03T03:27:11.475Z,34.10
2018-12-03T03:29:39.627Z,30.57
2018-12-03T03:32:07.781Z,36.60
2018-12-03T03:34:35.927Z,31.13
2018-12-03T03:37:04.083Z,36.48
2018-12-03T03:39:32.204Z,40.53
2018-12-03T03:42:00.340Z,32.00
2018-12-03T03:44:28.511Z,34.13
2018-12-03T03:46:56.659Z,38.07
2018-12-03T03:49:24.817Z,37.40
2018-12-03T03:51:52.942Z,37.80
2018-12-03T03:54:25.326Z,47.03
2018-12-03T03:56:49.315Z,40.23
2018-12-03T03:59:17.483Z,52.43
2018-12-03T04:01:45.631Z,39.50
2018-12-03T04:04:13.756Z,51.83
2018-12-03T04:06:41.921Z,47.20
2018-12-03T04:09:10.032Z,48.50
2018-12-03T04:11:38.171Z,49.07
2018-12-03T04:14:06.360Z,49.87
2018-12-03T04:16:34.533Z,49.37
2018-12-03T04:19:02.669Z,46.90
2018-12-03T04:21:30.828Z,49.07
2018-12-03T04:23:58.977Z,50.85
2018-12-03T04:26:27.135Z,54.53
2018-12-03T04:28:55.323Z,44.97
2018-12-03T04:31:23.497Z,43.63
2018-12-03T04:33:51.656Z,45.33
2018-12-03T04:36:19.819Z,42.27
2018-12-03T04:38:47.977Z,42.87
2018-12-03T04:41:16.172Z,46.43
2018-12-03T04:43:44.338Z,52.23
2018-12-03T04:46:12.504Z,43.80
2018-12-03T04:48:40.736Z,53.60
2018-12-03T04:51:08.860Z,51.60
2018-12-03T04:53:37.027Z,50.17
2018-12-03T04:56:05.264Z,49.47
2018-12-03T04:58:33.411Z,46.90
2018-12-03T05:01:01.536Z,50.30
2018-12-03T05:03:29.678Z,43.42
2018-12-03T05:05:57.829Z,44.60
2018-12-03T05:08:25.962Z,52.40
2018-12-03T05:10:54.116Z,48.00
2018-12-03T05:13:22.279Z,48.10
2018-12-03T05:15:50.382Z,45.97
2018-12-03T05:18:18.531Z,44.38
2018-12-03T05:20:46.703Z,41.10
2018-12-03T05:23:14.877Z,49.30
2018-12-03T05:25:43.063Z,45.63
2018-12-03T05:28:11.211Z,44.20
2018-12-03T05:30:39.391Z,38.07
2018-12-03T05:33:07.551Z,45.30
2018-12-03T05:35:35.736Z,48.33
2018-12-03T05:38:03.943Z,39.47
2018-12-03T05:40:32.358Z,46.47
2018-12-03T05:43:00.496Z,44.75
2018-12-03T05:45:28.627Z,39.67
2018-12-03T05:47:56.742Z,46.53
2018-12-03T05:50:24.834Z,46.33
2018-12-03T05:52:53.043Z,43.42
2018-12-03T05:55:21.178Z,42.85
2018-12-03T05:57:49.347Z,42.30
2018-12-03T06:00:18.902Z,42.37
2018-12-03T06:02:47.065Z,39.90
2018-12-03T06:05:15.431Z,47.47
2018-12-03T06:07:43.898Z,41.30
2018-12-03T06:10:14.291Z,41.70
2018-12-03T06:12:42.395Z,43.80
2018-12-03T06:15:12.942Z,39.90
2018-12-03T06:17:41.111Z,46.20
2018-12-03T06:20:14.176Z,41.20
2018-12-03T06:22:42.498Z,43.03
2018-12-03T06:25:16.878Z,37.57
2018-12-03T06:27:44.999Z,39.77
2018-12-03T06:30:15.273Z,34.18
2018-12-03T06:32:44.602Z,37.00
2018-12-03T06:35:13.729Z,40.93
2018-12-03T06:37:41.895Z,36.03
2018-12-03T06:40:14.263Z,38.55
2018-12-03T06:42:42.403Z,44.83
2018-12-03T06:45:13.771Z,38.43
2018-12-03T06:47:43.999Z,38.48
2018-12-03T06:50:12.171Z,39.77
2018-12-03T06:52:40.378Z,36.10
2018-12-03T06:55:10.056Z,45.27
2018-12-03T06:57:38.181Z,43.43
2018-12-03T07:00:14.803Z,42.27
2018-12-03T07:02:43.202Z,46.23
2018-12-03T07:05:11.599Z,43.73
2018-12-03T07:07:40.176Z,48.57
2018-12-03T07:10:13.693Z,51.87
2018-12-03T07:12:41.948Z,38.00
2018-12-03T07:15:11.482Z,32.43
2018-12-03T07:17:39.630Z,32.83
2018-12-03T07:20:12.719Z,9.83
2018-12-03T07:22:41.010Z,14.30
2018-12-03T07:25:11.295Z,14.60
2018-12-03T07:27:39.504Z,9.95
2018-12-03T07:30:17.831Z,8.67
2018-12-03T07:32:47.284Z,10.70
2018-12-03T07:35:15.431Z,17.20
2018-12-03T07:37:43.617Z,18.03
2018-12-03T07:40:12.486Z,17.57
2018-12-03T07:42:41.579Z,17.90
2018-12-03T07:45:19.740Z,17.87
2018-12-03T07:47:47.904Z,21.83
2018-12-03T07:50:18.005Z,20.93
2018-12-03T07:52:46.203Z,15.93
2018-12-03T07:55:18.455Z,17.17
2018-12-03T07:57:51.483Z,21.30
2018-12-03T08:00:22.728Z,20.20
2018-12-03T08:02:50.818Z,24.63
2018-12-03T08:05:18.959Z,20.57
2018-12-03T08:07:47.090Z,19.83
2018-12-03T08:10:16.423Z,17.93
2018-12-03T08:12:45.149Z,18.77
2018-12-03T08:15:17.412Z,21.53
2018-12-03T08:17:49.654Z,17.63
2018-12-03T08:20:21.361Z,18.03
2018-12-03T08:22:51.500Z,17.57
2018-12-03T08:25:20.424Z,18.77
2018-12-03T08:27:48.567Z,24.13
2018-12-03T08:30:16.704Z,19.00
2018-12-03T08:32:44.839Z,21.37
2018-12-03T08:35:14.531Z,17.37
2018-12-03T08:37:42.760Z,19.57
2018-12-03T08:40:18.240Z,17.40
2018-12-03T08:42:51.064Z,19.37
2018-12-03T08:45:19.815Z,15.63
2018-12-03T08:47:48.386Z,17.87
2018-12-03T08:50:19.437Z,11.27
2018-12-03T08:52:47.571Z,13.00
2018-12-03T08:55:15.684Z,15.30
2018-12-03T08:57:43.783Z,16.93
2018-12-03T09:00:15.351Z,16.53
2018-12-03T09:02:57.247Z,21.00
2018-12-03T09:05:26.283Z,13.62
2018-12-03T09:07:54.411Z,18.82
2018-12-03T09:10:23.137Z,18.37
2018-12-03T09:12:51.453Z,16.07
2018-12-03T09:15:19.619Z,25.00
2018-12-03T09:17:47.784Z,23.37
2018-12-03T09:20:15.936Z,15.80
2018-12-03T09:22:44.076Z,18.43
2018-12-03T09:25:22.563Z,17.47
2018-12-03T09:27:50.723Z,14.97
2018-12-03T09:30:19.134Z,16.63
2018-12-03T09:32:49.387Z,15.23
2018-12-03T09:35:17.511Z,14.05
2018-12-03T09:37:45.688Z,21.70
2018-12-03T09:40:16.484Z,14.17
2018-12-03T09:42:44.595Z,18.57
2018-12-03T09:45:15.663Z,13.93
2018-12-03T09:47:43.904Z,20.10
2018-12-03T09:50:18.112Z,15.53
2018-12-03T09:52:46.254Z,15.63
2018-12-03T09:55:16.105Z,15.03
2018-12-03T09:57:44.339Z,14.73
2018-12-03T10:00:17.913Z,19.00
2018-12-03T10:02:46.259Z,19.40
2018-12-03T10:05:15.729Z,13.77
2018-12-03T10:07:43.857Z,22.30
2018-12-03T10:10:13.788Z,15.68
2018-12-03T10:12:41.895Z,19.57
2018-12-03T10:15:12.077Z,19.77
2018-12-03T10:17:40.199Z,18.83
2018-12-03T10:20:10.731Z,18.30
2018-12-03T10:22:39.396Z,14.93
2018-12-03T10:25:14.103Z,19.35
2018-12-03T10:27:42.438Z,15.93
2018-12-03T10:30:26.607Z,24.98
2018-12-03T10:32:54.854Z,21.73
2018-12-03T10:35:22.967Z,11.40
2018-12-03T10:37:51.119Z,18.23
2018-12-03T10:40:20.722Z,24.53
2018-12-03T10:42:49.593Z,20.07
2018-12-03T10:45:25.952Z,13.63
2018-12-03T10:47:48.870Z,20.70
2018-12-03T10:50:22.294Z,24.92
2018-12-03T10:52:47.172Z,16.55
2018-12-03T10:55:15.281Z,17.83
2018-12-03T10:57:44.787Z,13.72
2018-12-03T11:00:21.208Z,20.63
2018-12-03T11:02:56.850Z,11.33
2018-12-03T11:05:35.576Z,18.43
2018-12-03T11:08:03.800Z,20.67
2018-12-03T11:10:34.358Z,13.80
2018-12-03T11:13:02.490Z,11.80
2018-12-03T11:15:30.623Z,9.43
2018-12-03T11:17:59.403Z,12.03
2018-12-03T11:20:27.532Z,17.10
2018-12-03T11:22:55.637Z,15.37
2018-12-03T11:25:29.551Z,15.40
2018-12-03T11:28:02.045Z,19.47
2018-12-03T11:30:30.660Z,18.48
2018-12-03T11:32:58.796Z,19.00
2018-12-03T11:35:29.475Z,10.65
2018-12-03T11:38:13.798Z,13.98
2018-12-03T11:40:45.367Z,17.50
2018-12-03T11:43:13.483Z,14.27
2018-12-03T11:45:41.590Z,13.47
2018-12-03T11:48:09.683Z,17.10
2018-12-03T11:50:38.063Z,18.57
2018-12-03T11:53:06.189Z,9.65
2018-12-03T11:55:34.294Z,16.20
2018-12-03T11:58:02.460Z,11.57
2018-12-03T12:00:30.579Z,11.60
2018-12-03T12:02:58.745Z,13.53
2018-12-03T12:05:26.843Z,20.77
2018-12-03T12:07:54.996Z,9.20
2018-12-03T12:10:23.119Z,14.28
2018-12-03T12:12:51.332Z,16.37
2018-12-03T12:15:19.463Z,16.42
2018-12-03T12:17:47.563Z,17.33
2018-12-03T12:20:15.711Z,14.47
2018-12-03T12:22:43.795Z,12.60
2018-12-03T12:25:12.999Z,20.17
2018-12-03T12:27:44.532Z,14.43
2018-12-03T12:30:14.354Z,19.80
2018-12-03T12:32:42.477Z,15.03
2018-12-03T12:35:10.882Z,20.60
2018-12-03T12:37:38.987Z,15.87
2018-12-03T12:40:10.771Z,14.70
2018-12-03T12:42:39.072Z,16.33
2018-12-03T12:45:14.331Z,10.60
2018-12-03T12:47:42.451Z,12.37
2018-12-03T12:50:13.520Z,10.53
2018-12-03T12:52:41.651Z,20.72
2018-12-03T12:55:09.751Z,14.85
2018-12-03T12:57:37.863Z,19.90
2018-12-03T13:00:11.359Z,15.63
2018-12-03T13:02:39.520Z,15.05
2018-12-03T13:05:07.702Z,18.00
2018-12-03T13:07:35.819Z,8.80
2018-12-03T13:10:04.475Z,29.50
2018-12-03T13:12:32.586Z,15.73
2018-12-03T13:15:00.689Z,16.73
2018-12-03T13:17:28.791Z,15.53
2018-12-03T13:19:56.942Z,14.63
2018-12-03T13:22:34.051Z,10.80
2018-12-03T13:25:02.351Z,12.33
2018-12-03T13:27:30.463Z,15.90
2018-12-03T13:29:58.583Z,17.80
2018-12-03T13:32:26.694Z,20.77
2018-12-03T13:34:54.803Z,18.87
2018-12-03T13:37:22.925Z,14.07
2018-12-03T13:39:54.079Z,18.33
2018-12-03T13:42:22.208Z,17.17
2018-12-03T13:44:50.315Z,22.57
2018-12-03T13:47:18.411Z,14.60
2018-12-03T13:49:46.519Z,10.30
2018-12-03T13:52:14.627Z,15.47
2018-12-03T13:54:42.738Z,9.93
2018-12-03T13:57:10.853Z,22.97
2018-12-03T13:59:38.938Z,13.00
2018-12-03T14:02:08.727Z,13.33
2018-12-03T14:04:36.909Z,17.55
2018-12-03T14:07:11.119Z,12.43
2018-12-03T14:09:48.634Z,16.10
2018-12-03T14:12:36.866Z,17.43
2018-12-03T14:15:16.436Z,12.43
2018-12-03T14:17:54.831Z,17.80
2018-12-03T14:20:23.687Z,14.50
2018-12-03T14:22:59.630Z,12.50
2018-12-03T14:25:27.739Z,13.78
2018-12-03T14:27:55.852Z,20.80
2018-12-03T14:30:23.967Z,10.13
2018-12-03T14:32:52.091Z,11.47
2018-12-03T14:35:20.196Z,12.60
2018-12-03T14:37:48.339Z,14.27
2018-12-03T14:40:16.446Z,13.10
2018-12-03T14:42:44.531Z,14.10
2018-12-03T14:45:12.837Z,15.53
2018-12-03T14:47:40.938Z,14.60
2018-12-03T14:50:10.447Z,13.77
2018-12-03T14:52:38.555Z,12.50
2018-12-03T14:55:07.446Z,17.12
2018-12-03T14:57:35.537Z,12.67
2018-12-03T15:00:03.704Z,17.77
2018-12-03T15:02:31.761Z,16.40
2018-12-03T15:04:59.869Z,13.43
2018-12-03T15:07:27.967Z,16.87
2018-12-03T15:09:56.096Z,23.32
2018-12-03T15:12:24.191Z,15.75
2018-12-03T15:14:52.352Z,12.73
2018-12-03T15:17:20.456Z,20.00
2018-12-03T15:19:48.572Z,13.03
2018-12-03T15:22:16.671Z,23.40
2018-12-03T15:24:44.793Z,17.10
2018-12-03T15:27:12.929Z,14.20
2018-12-03T15:29:41.064Z,17.40
2018-12-03T15:32:09.195Z,14.75
2018-12-03T15:34:37.327Z,9.63
2018-12-03T15:37:05.452Z,15.97
2018-12-03T15:39:33.554Z,20.70
2018-12-03T15:42:01.679Z,20.57
2018-12-03T15:44:29.795Z,10.25
2018-12-03T15:46:57.922Z,19.77
2018-12-03T15:49:26.059Z,15.00
2018-12-03T15:51:54.166Z,12.25
2018-12-03T15:54:22.283Z,16.82
2018-12-03T15:56:50.379Z,12.03
2018-12-03T15:59:18.490Z,15.23
2018-12-03T16:01:46.616Z,15.20
2018-12-03T16:04:14.827Z,14.20
2018-12-03T16:06:42.908Z,20.73
2018-12-03T16:09:12.480Z,16.70
2018-12-03T16:11:40.579Z,19.50
2018-12-03T16:14:08.683Z,18.13
2018-12-03T16:16:36.791Z,21.23
2018-12-03T16:19:04.986Z,19.60
2018-12-03T16:21:33.089Z,12.47
2018-12-03T16:24:01.183Z,18.93
2018-12-03T16:26:29.311Z,18.23
2018-12-03T16:28:57.419Z,11.70
2018-12-03T16:31:25.550Z,20.40
2018-12-03T16:33:53.651Z,14.37
2018-12-03T16:36:21.863Z,19.87
2018-12-03T16:38:50.000Z,20.77
2018-12-03T16:41:18.163Z,20.97
2018-12-03T16:43:46.293Z,22.93
2018-12-03T16:46:14.426Z,16.07
2018-12-03T16:48:42.534Z,24.03
2018-12-03T16:51:10.640Z,15.33
2018-12-03T16:53:39.195Z,25.00
2018-12-03T16:56:07.315Z,15.60
2018-12-03T16:58:35.428Z,21.60
2018-12-03T17:01:03.531Z,18.27
2018-12-03T17:03:31.679Z,23.45
2018-12-03T17:05:59.796Z,19.85
2018-12-03T17:08:27.963Z,19.48
2018-12-03T17:10:56.213Z,29.67
2018-12-03T17:13:24.319Z,26.10
2018-12-03T17:15:52.487Z,24.37
2018-12-03T17:18:20.600Z,22.70
2018-12-03T17:22:59.179Z,22.57
2018-12-03T17:25:27.859Z,21.47
2018-12-03T17:27:55.979Z,18.00
2018-12-03T17:31:34.235Z,20.00
2018-12-03T17:34:02.313Z,21.53
2018-12-03T17:36:30.441Z,16.83
2018-12-03T17:38:58.571Z,22.33
2018-12-03T17:41:26.691Z,16.60
2018-12-03T17:43:54.878Z,24.60
2018-12-03T17:46:23.008Z,17.83
2018-12-03T17:48:51.404Z,24.27
2018-12-03T17:51:19.577Z,18.47
2018-12-03T17:53:47.771Z,17.70
2018-12-03T17:56:15.962Z,22.03
2018-12-03T17:58:44.111Z,19.40
2018-12-03T18:01:12.225Z,20.13
2018-12-03T18:03:40.685Z,22.23
2018-12-03T18:06:08.971Z,24.27
2018-12-03T18:08:37.151Z,26.83
2018-12-03T18:11:05.332Z,25.10
2018-12-03T18:13:33.501Z,27.20
2018-12-03T18:16:01.659Z,34.33
2018-12-03T18:18:29.776Z,21.27
2018-12-03T18:20:57.911Z,25.70
2018-12-03T18:23:26.060Z,25.40
2018-12-03T18:25:54.251Z,24.57
2018-12-03T18:28:22.363Z,24.80
2018-12-03T18:30:50.511Z,31.30
2018-12-03T18:33:18.685Z,21.47
2018-12-03T18:35:46.794Z,29.77
2018-12-03T18:38:14.963Z,31.68
2018-12-03T18:40:43.057Z,21.50
2018-12-03T18:43:11.191Z,26.13
2018-12-03T18:45:39.285Z,29.77
2018-12-03T18:48:09.395Z,28.50
2018-12-03T18:50:38.808Z,33.77
2018-12-03T18:53:17.635Z,32.15
2018-12-03T18:55:45.793Z,22.93
2018-12-03T18:58:16.384Z,25.90
2018-12-03T19:00:44.497Z,35.57
2018-12-03T19:03:12.655Z,23.80
2018-12-03T19:05:40.814Z,26.97
2018-12-03T19:08:08.957Z,30.80
2018-12-03T19:10:37.178Z,32.20
2018-12-03T19:13:05.337Z,29.00
2018-12-03T19:15:33.455Z,23.77
2018-12-03T19:18:01.945Z,27.00
2018-12-03T19:20:30.078Z,31.87
2018-12-03T19:22:58.202Z,30.07
2018-12-03T19:25:26.319Z,26.03
2018-12-03T19:27:54.452Z,25.87
2018-12-03T19:30:22.588Z,27.30
2018-12-03T19:32:50.737Z,36.43
2018-12-03T19:35:18.963Z,27.27
2018-12-03T19:37:47.084Z,26.33
2018-12-03T19:40:15.259Z,28.03
2018-12-03T19:42:43.387Z,25.10
2018-12-03T19:45:11.511Z,22.30
2018-12-03T19:47:39.635Z,24.80
2018-12-03T19:50:08.700Z,25.43
2018-12-03T19:52:37.640Z,17.87
2018-12-03T19:55:08.169Z,28.73
2018-12-03T19:57:36.881Z,25.33
2018-12-03T20:00:08.539Z,30.73
2018-12-03T20:02:36.686Z,26.20
2018-12-03T20:05:10.017Z,21.40
2018-12-03T20:07:38.523Z,32.27
2018-12-03T20:10:07.920Z,22.37
2018-12-03T20:12:36.039Z,24.65
2018-12-03T20:15:05.009Z,24.60
2018-12-03T20:17:36.396Z,32.00
2018-12-03T20:20:07.227Z,28.25
2018-12-03T20:23:01.124Z,35.50
2018-12-03T20:25:34.207Z,27.10
2018-12-03T20:28:09.967Z,32.30
2018-12-03T20:30:53.914Z,33.93
2018-12-03T20:33:26.342Z,31.65
2018-12-03T20:36:06.845Z,41.87
2018-12-03T20:38:45.323Z,33.70
2018-12-03T20:41:17.805Z,30.00
2018-12-03T20:43:47.620Z,40.05
2018-12-03T20:46:24.423Z,35.10
2018-12-03T20:51:04.943Z,34.97
2018-12-03T20:53:38.100Z,28.90
2018-12-03T20:56:06.443Z,27.30
2018-12-03T20:58:34.588Z,37.35
2018-12-03T21:01:02.715Z,39.30
2018-12-03T21:03:30.840Z,34.45
2018-12-03T21:05:58.991Z,58.58
2018-12-03T21:08:27.119Z,28.92
2018-12-03T21:10:55.239Z,33.38
2018-12-03T21:13:23.848Z,39.25
2018-12-03T21:15:52.052Z,36.20
2018-12-03T21:18:20.203Z,33.98
2018-12-03T21:20:50.289Z,43.02
2018-12-03T21:23:18.487Z,44.53
2018-12-03T21:25:46.687Z,43.90
2018-12-03T21:28:14.979Z,44.20
2018-12-03T21:30:43.141Z,51.63
2018-12-03T21:33:11.251Z,38.83
2018-12-03T21:35:39.364Z,40.53
2018-12-03T21:38:07.571Z,39.20
2018-12-03T21:40:35.715Z,39.33
2018-12-03T21:43:03.890Z,45.23
2018-12-03T21:45:32.076Z,51.23
2018-12-03T21:48:00.243Z,49.50
2018-12-03T21:50:28.423Z,50.37
2018-12-03T21:52:56.562Z,40.03
2018-12-03T21:55:24.715Z,16.17
2018-12-03T21:57:54.245Z,10.80
2018-12-03T22:00:22.373Z,11.15
2018-12-03T22:02:50.494Z,11.78
2018-12-03T22:05:18.673Z,8.83
2018-12-03T22:07:46.846Z,10.00
2018-12-03T22:10:15.254Z,9.33
2018-12-03T22:12:43.417Z,3.07
2018-12-03T22:15:11.563Z,6.67
2018-12-03T22:17:39.707Z,5.17
2018-12-03T22:20:10.292Z,10.20
2018-12-03T22:22:38.487Z,5.10
2018-12-03T22:25:06.880Z,6.20
2018-12-03T22:27:34.986Z,5.57
2018-12-03T22:30:03.407Z,4.43
2018-12-03T22:32:31.556Z,7.90
2018-12-03T22:34:59.688Z,6.20
2018-12-03T22:37:27.835Z,13.60
2018-12-03T22:39:56.074Z,11.07
2018-12-03T22:42:24.202Z,11.80
2018-12-03T22:44:52.330Z,7.00
2018-12-03T22:47:20.447Z,4.77
2018-12-03T22:49:48.591Z,9.00
2018-12-03T22:52:16.738Z,6.37
2018-12-03T22:54:44.886Z,7.90
2018-12-03T22:57:12.994Z,9.87
2018-12-03T22:59:41.130Z,8.57
2018-12-03T23:02:09.278Z,9.33
2018-12-03T23:04:40.436Z,7.28
2018-12-03T23:07:08.690Z,7.05
2018-12-03T23:09:36.826Z,3.92
2018-12-03T23:12:05.021Z,4.92
2018-12-03T23:14:33.187Z,3.90
2018-12-03T23:17:01.316Z,7.42
2018-12-03T23:19:29.430Z,4.35
2018-12-03T23:21:57.547Z,7.47
2018-12-03T23:24:25.725Z,2.10
2018-12-03T23:26:53.836Z,10.47
2018-12-03T23:29:21.993Z,6.47
2018-12-03T23:31:50.139Z,8.63
2018-12-03T23:34:18.307Z,10.40
2018-12-03T23:36:46.444Z,5.63
2018-12-03T23:39:14.528Z,2.60
2018-12-03T23:41:42.682Z,5.70
2018-12-03T23:44:10.823Z,5.33
2018-12-03T23:46:38.953Z,14.43
2018-12-03T23:49:07.091Z,4.50
2018-12-03T23:51:36.328Z,7.80
2018-12-03T23:54:03.399Z,9.93
2018-12-03T23:56:31.539Z,5.03
2018-12-03T23:58:59.741Z,4.20
